createdAt,value
2018-12-14T00:01:33.259Z,30.50
2018-12-14T00:04:09.063Z,26.77
2018-12-14T00:06:43.403Z,35.43
2018-12-14T00:09:16.272Z,36.43
2018-12-14T00:11:47.099Z,36.47
2018-12-14T00:14:20.247Z,30.68
2018-12-14T00:16:51.936Z,32.53
2018-12-14T00:19:22.736Z,27.53
2018-12-14T00:21:53.465Z,26.23
2018-12-14T00:24:24.305Z,26.90
2018-12-14T00:26:55.288Z,25.93
2018-12-14T00:29:26.704Z,27.67
2018-12-14T00:31:57.839Z,28.67
2018-12-14T00:34:29.054Z,29.40
2018-12-14T00:36:59.813Z,26.67
2018-12-14T00:39:30.967Z,27.33
2018-12-14T00:42:03.437Z,25.60
2018-12-14T00:44:34.234Z,26.73
2018-12-14T00:47:08.127Z,26.90
2018-12-14T00:49:39.399Z,29.40
2018-12-14T00:52:10.203Z,32.80
2018-12-14T00:54:40.995Z,29.70
2018-12-14T00:57:11.906Z,30.70
2018-12-14T00:59:42.689Z,29.20
2018-12-14T01:02:18.560Z,28.93
2018-12-14T01:04:49.343Z,28.33
2018-12-14T01:07:20.043Z,29.50
2018-12-14T01:09:50.751Z,28.07
2018-12-14T01:12:21.403Z,29.70
2018-12-14T01:14:52.076Z,28.53
2018-12-14T01:17:22.715Z,28.33
2018-12-14T01:19:53.433Z,31.20
2018-12-14T01:22:24.145Z,32.70
2018-12-14T01:24:54.872Z,30.40
2018-12-14T01:27:25.534Z,31.20
2018-12-14T01:29:56.251Z,30.20
2018-12-14T01:32:27.022Z,29.70
2018-12-14T01:34:58.008Z,31.00
2018-12-14T01:37:28.727Z,29.33
2018-12-14T01:39:59.473Z,28.83
2018-12-14T01:42:30.139Z,28.03
2018-12-14T01:45:00.900Z,28.07
2018-12-14T01:47:32.803Z,27.47
2018-12-14T01:50:05.150Z,27.40
2018-12-14T01:52:36.039Z,27.40
2018-12-14T01:55:06.835Z,29.90
2018-12-14T01:57:37.767Z,27.33
2018-12-14T02:00:08.782Z,26.73
2018-12-14T02:02:40.374Z,25.83
2018-12-14T02:05:11.078Z,27.43
2018-12-14T02:07:41.809Z,27.20
2018-12-14T02:10:13.187Z,26.13
2018-12-14T02:12:43.894Z,26.53
2018-12-14T02:15:14.546Z,26.03
2018-12-14T02:17:45.230Z,26.43
2018-12-14T02:20:15.877Z,26.13
2018-12-14T02:22:46.619Z,27.03
2018-12-14T02:25:17.313Z,26.20
2018-12-14T02:27:48.834Z,24.70
2018-12-14T02:30:30.795Z,25.13
2018-12-14T02:33:05.421Z,26.17
2018-12-14T02:35:36.120Z,26.80
2018-12-14T02:38:06.766Z,28.63
2018-12-14T02:40:37.626Z,29.63
2018-12-14T02:43:08.359Z,29.57
2018-12-14T02:45:39.083Z,26.60
2018-12-14T02:48:10.235Z,28.90
2018-12-14T02:50:40.923Z,29.93
2018-12-14T02:53:11.579Z,29.17
2018-12-14T02:55:42.257Z,29.07
2018-12-14T02:58:12.906Z,31.07
2018-12-14T03:00:43.554Z,30.27
2018-12-14T03:03:15.625Z,28.87
2018-12-14T03:05:46.290Z,30.60
2018-12-14T03:08:17.906Z,30.10
2018-12-14T03:10:48.579Z,32.53
2018-12-14T03:13:19.899Z,32.40
2018-12-14T03:15:50.946Z,32.57
2018-12-14T03:18:22.607Z,31.10
2018-12-14T03:20:53.426Z,32.27
2018-12-14T03:23:24.125Z,31.30
2018-12-14T03:25:55.044Z,30.50
2018-12-14T03:28:25.680Z,33.70
2018-12-14T03:30:56.412Z,34.00
2018-12-14T03:33:27.068Z,37.73
2018-12-14T03:35:58.851Z,36.53
2018-12-14T03:38:29.571Z,34.07
2018-12-14T03:41:00.767Z,36.77
2018-12-14T03:43:32.976Z,37.00
2018-12-14T03:46:07.272Z,35.70
2018-12-14T03:48:38.039Z,34.23
2018-12-14T03:51:08.677Z,30.73
2018-12-14T03:53:39.360Z,29.97
2018-12-14T03:56:11.161Z,29.33
2018-12-14T03:58:41.971Z,31.33
2018-12-14T04:01:12.611Z,29.43
2018-12-14T04:03:43.381Z,29.70
2018-12-14T04:06:13.997Z,28.53
2018-12-14T04:08:45.747Z,29.17
2018-12-14T04:11:16.427Z,28.63
2018-12-14T04:13:49.054Z,28.23
2018-12-14T04:16:20.019Z,27.60
2018-12-14T04:18:50.692Z,28.40
2018-12-14T04:21:21.370Z,30.27
2018-12-14T04:23:52.067Z,29.80
2018-12-14T04:26:22.790Z,32.00
2018-12-14T04:28:53.410Z,30.13
2018-12-14T04:31:24.079Z,32.43
2018-12-14T04:33:54.690Z,30.67
2018-12-14T04:36:25.427Z,31.73
2018-12-14T04:38:58.210Z,29.80
2018-12-14T04:41:29.202Z,29.07
2018-12-14T04:44:00.505Z,28.97
2018-12-14T04:46:32.534Z,31.23
2018-12-14T04:49:07.160Z,30.30
2018-12-14T04:51:37.768Z,29.30
2018-12-14T04:54:08.484Z,30.20
2018-12-14T04:56:39.185Z,29.03
2018-12-14T04:59:10.148Z,30.63
2018-12-14T05:01:40.902Z,30.43
2018-12-14T05:04:11.710Z,31.13
2018-12-14T05:06:42.414Z,28.13
2018-12-14T05:09:13.122Z,28.50
2018-12-14T05:11:43.923Z,27.10
2018-12-14T05:14:14.815Z,27.57
2018-12-14T05:16:45.473Z,28.80
2018-12-14T05:19:16.155Z,30.00
2018-12-14T05:21:47.038Z,27.83
2018-12-14T05:24:18.197Z,27.67
2018-12-14T05:26:48.855Z,28.47
2018-12-14T05:29:19.584Z,30.77
2018-12-14T05:31:50.832Z,32.20
2018-12-14T05:34:22.555Z,32.10
2018-12-14T05:36:53.281Z,29.60
2018-12-14T05:39:23.945Z,31.70
2018-12-14T05:41:55.543Z,31.13
2018-12-14T05:44:26.226Z,29.93
2018-12-14T05:46:56.887Z,31.33
2018-12-14T05:49:28.138Z,30.43
2018-12-14T05:52:01.033Z,29.60
2018-12-14T05:54:35.849Z,30.00
2018-12-14T05:57:06.512Z,29.80
2018-12-14T05:59:37.250Z,29.50
2018-12-14T06:02:07.943Z,28.77
2018-12-14T06:04:41.579Z,28.80
2018-12-14T06:07:12.365Z,26.20
2018-12-14T06:09:43.071Z,26.13
2018-12-14T06:12:14.192Z,28.60
2018-12-14T06:14:45.199Z,27.87
2018-12-14T06:17:15.832Z,28.47
2018-12-14T06:19:46.513Z,27.87
2018-12-14T06:22:17.199Z,27.97
2018-12-14T06:24:47.952Z,27.73
2018-12-14T06:27:18.655Z,26.77
2018-12-14T06:29:49.364Z,26.80
2018-12-14T06:32:20.007Z,24.87
2018-12-14T06:34:50.710Z,24.53
2018-12-14T06:37:22.244Z,25.93
2018-12-14T06:39:53.140Z,25.40
2018-12-14T06:42:23.918Z,25.30
2018-12-14T06:44:54.719Z,24.80
2018-12-14T06:47:27.667Z,25.17
2018-12-14T06:49:58.415Z,26.47
2018-12-14T06:52:29.146Z,27.07
2018-12-14T06:54:59.904Z,29.00
2018-12-14T06:57:31.231Z,30.80
2018-12-14T07:00:06.924Z,29.63
2018-12-14T07:02:38.007Z,29.03
2018-12-14T07:05:08.842Z,27.33
2018-12-14T07:07:39.579Z,30.13
2018-12-14T07:10:11.307Z,28.73
2018-12-14T07:12:42.097Z,27.23
2018-12-14T07:15:12.774Z,28.63
2018-12-14T07:17:44.834Z,28.03
2018-12-14T07:20:15.570Z,25.97
2018-12-14T07:22:46.351Z,24.83
2018-12-14T07:25:17.916Z,26.33
2018-12-14T07:27:48.615Z,24.33
2018-12-14T07:30:20.145Z,26.03
2018-12-14T07:32:50.873Z,27.17
2018-12-14T07:35:21.977Z,26.50
2018-12-14T07:37:52.724Z,26.33
2018-12-14T07:40:24.109Z,26.97
2018-12-14T07:42:56.683Z,25.23
2018-12-14T07:45:28.570Z,25.93
2018-12-14T07:48:01.874Z,28.00
2018-12-14T07:50:32.883Z,27.90
2018-12-14T07:53:09.125Z,28.90
2018-12-14T07:55:38.326Z,26.53
2018-12-14T07:58:09.018Z,27.57
2018-12-14T08:00:39.829Z,26.83
2018-12-14T08:03:10.467Z,27.20
2018-12-14T08:05:42.351Z,29.60
2018-12-14T08:08:13.443Z,27.17
2018-12-14T08:10:44.180Z,28.53
2018-12-14T08:13:14.943Z,27.00
2018-12-14T08:15:45.649Z,27.40
2018-12-14T08:18:17.600Z,27.30
2018-12-14T08:20:48.343Z,28.83
2018-12-14T08:23:19.167Z,29.40
2018-12-14T08:25:49.901Z,31.10
2018-12-14T08:28:20.629Z,29.10
2018-12-14T08:30:53.209Z,29.30
2018-12-14T08:33:24.191Z,28.25
2018-12-14T08:35:55.567Z,28.90
2018-12-14T08:38:26.248Z,24.40
2018-12-14T08:40:56.930Z,25.47
2018-12-14T08:43:28.021Z,24.53
2018-12-14T08:45:58.737Z,23.30
2018-12-14T08:48:29.538Z,23.97
2018-12-14T08:51:00.232Z,28.03
2018-12-14T08:53:33.136Z,27.73
2018-12-14T08:56:05.604Z,24.27
2018-12-14T08:58:36.272Z,23.47
2018-12-14T09:01:07.006Z,22.10
2018-12-14T09:03:37.672Z,23.10
2018-12-14T09:06:09.495Z,23.47
2018-12-14T09:08:40.176Z,23.63
2018-12-14T09:11:10.843Z,23.23
2018-12-14T09:13:47.680Z,24.47
2018-12-14T09:16:14.210Z,25.50
2018-12-14T09:18:45.095Z,26.27
2018-12-14T09:21:15.799Z,26.07
2018-12-14T09:23:46.557Z,23.07
2018-12-14T09:26:17.428Z,24.30
2018-12-14T09:28:50.234Z,24.12
2018-12-14T09:31:21.578Z,25.73
2018-12-14T09:33:52.405Z,29.93
2018-12-14T09:36:23.252Z,27.27
2018-12-14T09:38:53.896Z,25.68
2018-12-14T09:41:24.766Z,24.37
2018-12-14T09:43:55.455Z,24.90
2018-12-14T09:46:26.395Z,23.23
2018-12-14T09:48:58.358Z,21.70
2018-12-14T09:51:29.017Z,20.53
2018-12-14T09:53:59.711Z,20.97
2018-12-14T09:56:30.660Z,19.55
2018-12-14T09:59:01.380Z,20.32
2018-12-14T10:01:32.578Z,20.97
2018-12-14T10:04:06.695Z,20.40
2018-12-14T10:06:37.780Z,20.85
2018-12-14T10:09:09.026Z,20.60
2018-12-14T10:11:40.250Z,20.77
2018-12-14T10:14:10.991Z,21.45
2018-12-14T10:16:41.668Z,20.55
2018-12-14T10:19:12.516Z,20.60
2018-12-14T10:21:43.666Z,21.82
2018-12-14T10:24:14.425Z,21.02
2018-12-14T10:26:45.130Z,20.37
2018-12-14T10:29:15.858Z,21.65
2018-12-14T10:31:46.562Z,19.90
2018-12-14T10:34:17.275Z,18.67
2018-12-14T10:36:47.999Z,17.70
2018-12-14T10:39:18.731Z,18.62
2018-12-14T10:41:49.630Z,16.02
2018-12-14T10:44:20.370Z,17.32
2018-12-14T10:46:51.302Z,20.23
2018-12-14T10:49:22.361Z,20.72
2018-12-14T10:51:53.399Z,18.02
2018-12-14T10:54:24.337Z,16.55
2018-12-14T10:56:55.360Z,14.63
2018-12-14T10:59:26.599Z,16.70
2018-12-14T11:01:58.970Z,15.20
2018-12-14T11:04:29.887Z,15.70
2018-12-14T11:07:00.824Z,15.95
2018-12-14T11:09:32.806Z,15.85
2018-12-14T11:12:05.339Z,17.27
2018-12-14T11:14:36.015Z,19.50
2018-12-14T11:17:09.231Z,20.70
2018-12-14T11:19:39.858Z,20.12
2018-12-14T11:22:10.567Z,20.32
2018-12-14T11:24:41.215Z,22.77
2018-12-14T11:27:13.334Z,20.48
2018-12-14T11:29:44.012Z,21.57
2018-12-14T11:32:16.010Z,21.77
2018-12-14T11:34:46.730Z,19.62
2018-12-14T11:37:17.470Z,18.30
2018-12-14T11:39:48.325Z,18.48
2018-12-14T11:42:18.963Z,17.98
2018-12-14T11:44:49.662Z,18.37
2018-12-14T11:47:20.885Z,19.73
2018-12-14T11:49:52.444Z,20.60
2018-12-14T11:52:23.175Z,19.10
2018-12-14T11:54:53.860Z,18.60
2018-12-14T11:57:24.546Z,19.77
2018-12-14T11:59:55.422Z,21.15
2018-12-14T12:02:26.148Z,20.55
2018-12-14T12:04:56.814Z,21.97
2018-12-14T12:07:27.586Z,22.85
2018-12-14T12:09:58.244Z,22.55
2018-12-14T12:12:28.974Z,22.42
2018-12-14T12:14:59.720Z,21.55
2018-12-14T12:17:30.406Z,21.65
2018-12-14T12:20:05.354Z,21.68
2018-12-14T12:22:36.019Z,21.70
2018-12-14T12:25:08.343Z,20.32
2018-12-14T12:27:39.011Z,22.42
2018-12-14T12:30:10.794Z,19.95
2018-12-14T12:32:41.513Z,18.70
2018-12-14T12:35:12.239Z,16.40
2018-12-14T12:37:42.907Z,17.42
2018-12-14T12:40:14.387Z,28.30
2018-12-14T12:42:45.141Z,33.90
2018-12-14T12:45:15.899Z,27.37
2018-12-14T12:47:46.615Z,26.27
2018-12-14T12:50:17.340Z,26.60
2018-12-14T12:52:47.976Z,23.73
2018-12-14T12:55:18.682Z,24.45
2018-12-14T12:57:49.320Z,22.42
2018-12-14T13:00:20.051Z,16.57
2018-12-14T13:02:50.727Z,13.20
2018-12-14T13:05:21.485Z,14.25
2018-12-14T13:07:53.262Z,13.00
2018-12-14T13:10:23.942Z,89.65
2018-12-14T13:12:54.650Z,25.17
2018-12-14T13:15:25.451Z,12.55
2018-12-14T13:17:56.343Z,10.63
2018-12-14T13:20:27.048Z,26.33
2018-12-14T13:22:57.906Z,33.55
2018-12-14T13:25:30.356Z,36.00
2018-12-14T13:28:05.227Z,54.23
2018-12-14T13:30:36.475Z,22.90
2018-12-14T13:33:08.139Z,11.73
2018-12-14T13:35:38.902Z,59.65
2018-12-14T13:38:09.895Z,53.73
2018-12-14T13:40:40.567Z,14.47
2018-12-14T13:43:11.279Z,6.40
2018-12-14T13:45:42.046Z,6.50
2018-12-14T13:48:12.692Z,5.67
2018-12-14T13:50:44.788Z,38.15
2018-12-14T13:53:18.403Z,7.95
2018-12-14T13:55:49.083Z,7.83
2018-12-14T13:58:19.782Z,8.18
2018-12-14T14:00:50.614Z,20.57
2018-12-14T14:03:21.377Z,7.10
2018-12-14T14:05:52.011Z,5.83
2018-12-14T14:08:22.749Z,4.83
2018-12-14T14:10:53.364Z,5.85
2018-12-14T14:13:24.052Z,8.75
2018-12-14T14:15:55.935Z,8.18
2018-12-14T14:18:26.894Z,5.83
2018-12-14T14:20:57.598Z,5.95
2018-12-14T14:23:28.506Z,6.55
2018-12-14T14:26:01.054Z,11.00
2018-12-14T14:28:32.716Z,6.25
2018-12-14T14:31:05.227Z,6.33
2018-12-14T14:33:35.843Z,6.70
2018-12-14T14:36:06.626Z,7.42
2018-12-14T14:38:37.329Z,8.98
2018-12-14T14:41:08.284Z,8.65
2018-12-14T14:43:39.565Z,8.65
2018-12-14T14:46:10.281Z,8.43
2018-12-14T14:48:40.987Z,8.08
2018-12-14T14:51:11.924Z,7.72
2018-12-14T14:53:42.600Z,9.28
2018-12-14T14:56:13.320Z,8.98
2018-12-14T14:58:44.049Z,13.08
2018-12-14T15:01:15.170Z,8.30
2018-12-14T15:03:45.885Z,10.38
2018-12-14T15:06:16.540Z,8.58
2018-12-14T15:08:47.204Z,7.92
2018-12-14T15:11:17.917Z,9.05
2018-12-14T15:13:49.680Z,9.45
2018-12-14T15:16:20.517Z,9.70
2018-12-14T15:18:51.229Z,8.00
2018-12-14T15:21:22.630Z,9.53
2018-12-14T15:23:53.399Z,8.63
2018-12-14T15:26:24.118Z,12.78
2018-12-14T15:28:54.795Z,12.13
2018-12-14T15:31:25.729Z,7.72
2018-12-14T15:33:56.446Z,7.80
2018-12-14T15:36:27.290Z,7.40
2018-12-14T15:38:57.900Z,7.85
2018-12-14T15:41:28.579Z,6.58
2018-12-14T15:43:59.296Z,6.85
2018-12-14T15:46:29.995Z,7.05
2018-12-14T15:49:00.841Z,7.60
2018-12-14T15:51:33.609Z,7.37
2018-12-14T15:54:04.990Z,6.28
2018-12-14T15:56:35.661Z,6.20
2018-12-14T15:59:08.162Z,8.53
2018-12-14T16:01:38.976Z,6.37
2018-12-14T16:04:09.731Z,14.28
2018-12-14T16:06:40.423Z,13.70
2018-12-14T16:09:11.106Z,8.70
2018-12-14T16:11:41.789Z,8.28
2018-12-14T16:14:12.683Z,8.25
2018-12-14T16:16:43.468Z,8.65
2018-12-14T16:19:14.243Z,36.23
2018-12-14T16:21:45.495Z,93.67
2018-12-14T16:24:16.211Z,45.20
2018-12-14T16:26:46.974Z,29.12
2018-12-14T16:29:17.662Z,21.35
2018-12-14T16:31:48.315Z,23.73
2018-12-14T16:34:19.108Z,32.98
2018-12-14T16:36:49.758Z,39.10
2018-12-14T16:39:20.416Z,11.08
2018-12-14T16:41:51.079Z,8.13
2018-12-14T16:44:21.741Z,9.43
2018-12-14T16:46:52.410Z,9.85
2018-12-14T16:49:23.109Z,11.73
2018-12-14T16:51:53.850Z,13.03
2018-12-14T16:54:24.562Z,12.58
2018-12-14T16:56:55.811Z,11.45
2018-12-14T16:59:26.514Z,10.70
2018-12-14T17:01:57.270Z,11.22
2018-12-14T17:04:27.908Z,10.40
2018-12-14T17:06:58.636Z,10.30
2018-12-14T17:09:29.413Z,10.35
2018-12-14T17:12:00.247Z,13.30
2018-12-14T17:14:33.089Z,13.20
2018-12-14T17:17:07.209Z,11.78
2018-12-14T17:19:37.870Z,12.07
2018-12-14T17:22:08.603Z,12.63
2018-12-14T17:24:39.292Z,17.70
2018-12-14T17:27:10.137Z,14.58
2018-12-14T17:29:40.814Z,13.48
2018-12-14T17:32:11.504Z,10.43
2018-12-14T17:34:42.218Z,14.75
2018-12-14T17:37:15.587Z,17.30
2018-12-14T17:39:46.988Z,15.72
2018-12-14T17:42:19.852Z,13.88
2018-12-14T17:44:50.602Z,13.60
2018-12-14T17:47:21.286Z,15.43
2018-12-14T17:49:52.403Z,14.98
2018-12-14T17:52:23.047Z,13.13
2018-12-14T17:54:54.233Z,14.33
2018-12-14T17:57:24.865Z,13.22
2018-12-14T17:59:56.021Z,14.05
2018-12-14T18:02:26.707Z,15.78
2018-12-14T18:04:59.635Z,28.62
2018-12-14T18:07:30.339Z,40.73
2018-12-14T18:10:06.451Z,41.08
2018-12-14T18:12:37.183Z,28.98
2018-12-14T18:15:09.318Z,22.77
2018-12-14T18:17:39.948Z,24.55
2018-12-14T18:20:11.234Z,23.50
2018-12-14T18:22:43.109Z,19.92
2018-12-14T18:25:14.575Z,17.55
2018-12-14T18:27:45.404Z,16.55
2018-12-14T18:30:16.126Z,19.67
2018-12-14T18:32:46.831Z,16.50
2018-12-14T18:35:17.481Z,17.02
2018-12-14T18:37:48.327Z,15.43
2018-12-14T18:40:19.183Z,14.60
2018-12-14T18:42:49.974Z,13.93
2018-12-14T18:45:21.109Z,18.80
2018-12-14T18:47:51.837Z,23.60
2018-12-14T18:50:22.558Z,21.60
2018-12-14T18:52:53.307Z,20.37
2018-12-14T18:55:24.015Z,22.62
2018-12-14T18:57:54.762Z,30.57
2018-12-14T19:00:25.923Z,40.75
2018-12-14T19:02:56.686Z,34.85
2018-12-14T19:05:27.355Z,23.32
2018-12-14T19:07:58.049Z,20.10
2018-12-14T19:10:30.188Z,23.87
2018-12-14T19:13:00.959Z,28.20
2018-12-14T19:15:32.156Z,28.95
2018-12-14T19:18:04.343Z,29.23
2018-12-14T19:20:35.120Z,29.12
2018-12-14T19:23:05.827Z,30.02
2018-12-14T19:25:36.528Z,36.08
2018-12-14T19:28:07.584Z,32.48
2018-12-14T19:30:38.316Z,32.83
2018-12-14T19:33:09.294Z,36.53
2018-12-14T19:35:40.144Z,43.10
2018-12-14T19:38:10.857Z,39.25
2018-12-14T19:40:41.772Z,31.40
2018-12-14T19:43:13.753Z,34.73
2018-12-14T19:45:44.427Z,56.68
2018-12-14T19:48:15.627Z,45.50
2018-12-14T19:50:46.376Z,38.88
2018-12-14T19:53:17.132Z,36.88
2018-12-14T19:55:48.134Z,35.75
2018-12-14T19:58:18.915Z,34.78
2018-12-14T20:00:49.631Z,46.40
2018-12-14T20:03:20.372Z,40.30
2018-12-14T20:05:51.007Z,45.45
2018-12-14T20:08:22.046Z,55.12
2018-12-14T20:10:58.922Z,39.40
2018-12-14T20:13:31.018Z,45.15
2018-12-14T20:16:12.598Z,37.80
2018-12-14T20:18:39.242Z,41.20
2018-12-14T20:21:09.916Z,41.00
2018-12-14T20:23:41.585Z,41.10
2018-12-14T20:26:12.249Z,46.33
2018-12-14T20:28:43.015Z,41.48
2018-12-14T20:31:13.749Z,40.52
2018-12-14T20:33:44.608Z,40.28
2018-12-14T20:36:15.380Z,40.35
2018-12-14T20:38:46.167Z,38.67
2018-12-14T20:41:17.737Z,35.75
2018-12-14T20:43:48.679Z,37.65
2018-12-14T20:46:19.606Z,39.13
2018-12-14T20:48:50.320Z,43.20
2018-12-14T20:51:21.319Z,38.15
2018-12-14T20:53:51.975Z,35.48
2018-12-14T20:56:22.756Z,35.58
2018-12-14T20:58:53.558Z,36.30
2018-12-14T21:01:25.096Z,55.98
2018-12-14T21:03:57.756Z,53.85
2018-12-14T21:06:28.693Z,69.15
2018-12-14T21:08:59.386Z,76.97
2018-12-14T21:11:30.058Z,132.18
2018-12-14T21:14:00.818Z,121.47
2018-12-14T21:16:34.722Z,92.47
2018-12-14T21:19:05.435Z,77.85
2018-12-14T21:21:36.549Z,85.83
2018-12-14T21:24:07.293Z,54.20
2018-12-14T21:26:37.936Z,55.40
2018-12-14T21:29:09.033Z,54.73
2018-12-14T21:31:39.774Z,46.55
2018-12-14T21:34:10.664Z,52.53
2018-12-14T21:36:41.419Z,49.45
2018-12-14T21:39:12.325Z,50.50
2018-12-14T21:41:43.486Z,51.92
2018-12-14T21:44:14.199Z,50.73
2018-12-14T21:46:44.964Z,48.20
2018-12-14T21:49:15.925Z,48.15
2018-12-14T21:51:47.263Z,41.63
2018-12-14T21:54:20.003Z,40.25
2018-12-14T21:56:50.671Z,36.42
2018-12-14T21:59:21.393Z,38.10
2018-12-14T22:01:52.096Z,39.40
2018-12-14T22:04:23.683Z,47.05
2018-12-14T22:06:54.553Z,41.20
2018-12-14T22:09:25.229Z,47.13
2018-12-14T22:11:56.091Z,45.20
2018-12-14T22:14:26.834Z,47.78
2018-12-14T22:16:57.658Z,48.80
2018-12-14T22:19:28.467Z,60.30
2018-12-14T22:21:59.147Z,54.75
2018-12-14T22:24:29.871Z,55.17
2018-12-14T22:27:00.540Z,52.78
2018-12-14T22:29:33.955Z,49.98
2018-12-14T22:32:08.314Z,48.33
2018-12-14T22:34:39.007Z,49.63
2018-12-14T22:37:10.912Z,47.15
2018-12-14T22:39:41.932Z,44.45
2018-12-14T22:42:12.669Z,35.00
2018-12-14T22:44:43.339Z,26.68
2018-12-14T22:47:14.084Z,20.15
2018-12-14T22:49:45.765Z,21.40
2018-12-14T22:52:17.547Z,17.02
2018-12-14T22:54:48.395Z,15.65
2018-12-14T22:57:19.057Z,14.18
2018-12-14T22:59:50.351Z,8.88
2018-12-14T23:02:21.063Z,8.08
2018-12-14T23:04:51.712Z,7.03
2018-12-14T23:07:22.434Z,6.97
2018-12-14T23:09:53.227Z,5.00
2018-12-14T23:12:25.409Z,4.62
2018-12-14T23:14:56.132Z,4.60
2018-12-14T23:17:27.416Z,4.28
2018-12-14T23:19:58.671Z,4.12
2018-12-14T23:22:29.802Z,4.53
2018-12-14T23:25:00.510Z,4.40
2018-12-14T23:27:34.446Z,5.58
2018-12-14T23:30:09.870Z,4.08
2018-12-14T23:32:40.526Z,3.85
2018-12-14T23:35:13.098Z,4.78
2018-12-14T23:37:43.807Z,3.75
2018-12-14T23:40:14.493Z,3.85
2018-12-14T23:42:45.604Z,3.90
2018-12-14T23:45:16.309Z,4.03
2018-12-14T23:47:47.582Z,3.75
2018-12-14T23:50:18.884Z,3.08
2018-12-14T23:52:49.623Z,3.87
2018-12-14T23:55:21.891Z,4.15
2018-12-14T23:57:52.575Z,4.58
